createdAt,value
2022-08-11T00:01:16.737Z,22.90
2022-08-11T00:03:49.902Z,22.90
2022-08-11T00:06:37.647Z,22.90
2022-08-11T00:09:09.162Z,22.70
2022-08-11T00:11:42.348Z,22.60
2022-08-11T00:14:37.156Z,22.60
2022-08-11T00:17:14.563Z,22.60
2022-08-11T00:20:11.857Z,22.60
2022-08-11T00:22:34.509Z,22.50
2022-08-11T00:25:18.977Z,22.40
2022-08-11T00:27:47.431Z,22.40
2022-08-11T00:30:15.683Z,22.40
2022-08-11T00:32:46.047Z,22.40
2022-08-11T00:35:53.752Z,22.30
2022-08-11T00:38:03.862Z,22.10
2022-08-11T00:40:53.150Z,22.20
2022-08-11T00:43:41.820Z,22.10
2022-08-11T00:46:27.061Z,21.90
2022-08-11T00:49:08.717Z,21.70
2022-08-11T00:52:10.087Z,21.50
2022-08-11T00:54:39.471Z,21.40
2022-08-11T00:57:37.181Z,21.40
2022-08-11T01:00:26.990Z,21.20
2022-08-11T01:03:24.868Z,21.10
2022-08-11T01:06:33.136Z,21.00
2022-08-11T01:09:25.351Z,20.80
2022-08-11T01:12:20.358Z,20.70
2022-08-11T01:15:05.471Z,20.60
2022-08-11T01:18:08.906Z,20.50
2022-08-11T01:20:51.606Z,20.40
2022-08-11T01:23:52.846Z,20.20
2022-08-11T01:26:57.453Z,20.10
2022-08-11T01:29:54.905Z,20.10
2022-08-11T01:32:49.123Z,20.30
2022-08-11T01:35:40.762Z,20.30
2022-08-11T01:38:32.239Z,20.30
2022-08-11T01:41:52.501Z,20.20
2022-08-11T01:44:48.308Z,20.10
2022-08-11T01:47:54.106Z,20.20
2022-08-11T01:50:26.782Z,20.10
2022-08-11T01:53:04.148Z,20.30
2022-08-11T01:55:57.892Z,20.40
2022-08-11T01:58:49.374Z,20.40
2022-08-11T02:01:34.611Z,20.60
2022-08-11T02:04:35.053Z,20.40
2022-08-11T02:07:18.044Z,20.30
2022-08-11T02:10:35.343Z,20.30
2022-08-11T02:13:35.720Z,20.20
2022-08-11T02:16:39.843Z,20.00
2022-08-11T02:19:37.110Z,19.80
2022-08-11T02:22:35.674Z,19.60
2022-08-11T02:25:11.201Z,19.60
2022-08-11T02:28:09.465Z,19.60
2022-08-11T02:30:41.377Z,19.50
2022-08-11T02:33:24.487Z,19.40
2022-08-11T02:36:10.531Z,19.20
2022-08-11T02:39:00.801Z,19.20
2022-08-11T02:42:32.628Z,19.10
2022-08-11T02:45:16.742Z,19.10
2022-08-11T02:48:29.891Z,19.30
2022-08-11T02:51:24.819Z,19.10
2022-08-11T02:54:15.918Z,19.00
2022-08-11T02:56:45.361Z,19.20
2022-08-11T02:59:52.237Z,19.20
2022-08-11T03:02:25.106Z,19.00
2022-08-11T03:05:10.554Z,18.70
2022-08-11T03:07:47.294Z,18.50
2022-08-11T03:10:29.911Z,18.40
2022-08-11T03:13:18.138Z,18.30
2022-08-11T03:16:20.746Z,18.20
2022-08-11T03:19:21.971Z,18.10
2022-08-11T03:22:03.326Z,18.00
2022-08-11T03:24:44.308Z,18.00
2022-08-11T03:27:39.575Z,18.00
2022-08-11T03:30:15.814Z,18.00
2022-08-11T03:33:16.671Z,17.90
2022-08-11T03:36:09.927Z,17.90
2022-08-11T03:38:58.040Z,17.80
2022-08-11T03:42:02.139Z,17.90
2022-08-11T03:45:10.484Z,17.90
2022-08-11T03:47:58.550Z,17.90
2022-08-11T03:50:43.647Z,18.00
2022-08-11T03:53:20.191Z,18.10
2022-08-11T03:56:20.854Z,18.10
2022-08-11T03:59:25.219Z,18.20
2022-08-11T04:02:16.571Z,18.20
2022-08-11T04:05:25.605Z,18.40
2022-08-11T04:08:16.731Z,18.30
2022-08-11T04:11:14.088Z,18.30
2022-08-11T04:14:37.330Z,18.10
2022-08-11T04:17:36.181Z,18.10
2022-08-11T04:20:29.825Z,18.20
2022-08-11T04:23:11.786Z,18.30
2022-08-11T04:26:18.559Z,18.40
2022-08-11T04:28:54.385Z,18.40
2022-08-11T04:31:44.452Z,18.40
2022-08-11T04:34:26.628Z,18.40
2022-08-11T04:37:34.069Z,18.40
2022-08-11T04:40:00.819Z,18.30
2022-08-11T04:42:58.011Z,18.40
2022-08-11T04:46:02.330Z,18.40
2022-08-11T04:49:25.659Z,18.40
2022-08-11T04:52:38.513Z,18.40
2022-08-11T04:55:47.686Z,18.40
2022-08-11T04:59:20.344Z,18.50
2022-08-11T05:02:18.728Z,18.40
2022-08-11T05:05:09.737Z,18.30
2022-08-11T05:08:24.228Z,18.40
2022-08-11T05:11:15.622Z,18.60
2022-08-11T05:14:07.496Z,18.80
2022-08-11T05:17:09.132Z,18.90
2022-08-11T05:19:55.196Z,18.90
2022-08-11T05:22:47.152Z,19.00
2022-08-11T05:26:44.379Z,19.00
2022-08-11T05:29:20.211Z,18.80
2022-08-11T05:32:14.546Z,19.00
2022-08-11T05:34:56.779Z,19.10
2022-08-11T05:37:29.221Z,19.20
2022-08-11T05:40:30.983Z,19.30
2022-08-11T05:43:31.387Z,19.30
2022-08-11T05:46:19.604Z,19.50
2022-08-11T05:49:06.115Z,20.00
2022-08-11T05:52:05.484Z,20.30
2022-08-11T05:54:59.391Z,20.70
2022-08-11T05:57:49.527Z,20.90
2022-08-11T06:00:19.891Z,21.00
2022-08-11T06:02:55.830Z,21.20
2022-08-11T06:05:23.228Z,21.20
2022-08-11T06:07:57.016Z,21.10
2022-08-11T06:10:33.313Z,21.10
2022-08-11T06:13:01.128Z,21.10
2022-08-11T06:15:30.215Z,21.10
2022-08-11T06:17:58.843Z,21.20
2022-08-11T06:20:25.984Z,21.40
2022-08-11T06:22:58.688Z,21.50
2022-08-11T06:25:35.720Z,21.60
2022-08-11T06:28:08.131Z,21.80
2022-08-11T06:30:40.651Z,22.10
2022-08-11T06:33:11.933Z,22.20
2022-08-11T06:35:46.048Z,22.40
2022-08-11T06:38:49.460Z,22.70
2022-08-11T06:41:32.772Z,22.80
2022-08-11T06:44:13.278Z,22.90
2022-08-11T06:46:42.363Z,23.10
2022-08-11T06:49:29.922Z,23.20
2022-08-11T06:52:04.549Z,23.40
2022-08-11T06:54:35.138Z,23.60
2022-08-11T06:57:29.823Z,23.80
2022-08-11T07:00:17.866Z,23.90
2022-08-11T07:03:00.649Z,24.00
2022-08-11T07:05:53.992Z,24.30
2022-08-11T07:08:42.183Z,24.60
2022-08-11T07:12:05.125Z,24.90
2022-08-11T07:14:51.450Z,25.20
2022-08-11T07:17:22.401Z,25.60
2022-08-11T07:20:17.476Z,25.90
2022-08-11T07:23:13.530Z,26.10
2022-08-11T07:26:02.587Z,26.50
2022-08-11T07:28:50.059Z,26.90
2022-08-11T07:31:24.440Z,27.20
2022-08-11T07:34:11.131Z,27.20
2022-08-11T07:36:44.947Z,27.10
2022-08-11T07:39:18.892Z,27.00
2022-08-11T07:41:47.195Z,27.20
2022-08-11T07:44:16.863Z,27.40
2022-08-11T07:47:05.644Z,27.40
2022-08-11T07:49:55.771Z,27.50
2022-08-11T07:52:35.072Z,27.50
2022-08-11T07:55:06.619Z,27.20
2022-08-11T07:58:13.533Z,27.00
2022-08-11T08:01:03.736Z,26.80
2022-08-11T08:03:57.639Z,26.70
2022-08-11T08:06:44.581Z,26.60
2022-08-11T08:09:32.567Z,26.70
2022-08-11T08:12:20.732Z,26.70
2022-08-11T08:15:06.156Z,26.80
2022-08-11T08:18:09.408Z,27.00
2022-08-11T08:20:46.938Z,27.00
2022-08-11T08:23:14.479Z,27.00
2022-08-11T08:25:43.839Z,26.90
2022-08-11T08:28:14.867Z,27.00
2022-08-11T08:30:55.160Z,27.10
2022-08-11T08:33:27.466Z,27.20
2022-08-11T08:36:12.648Z,27.40
2022-08-11T08:38:43.851Z,27.50
2022-08-11T08:41:13.159Z,27.60
2022-08-11T08:43:49.137Z,27.70
2022-08-11T08:46:20.642Z,27.50
2022-08-11T08:48:49.053Z,27.20
2022-08-11T08:51:58.657Z,27.30
2022-08-11T08:54:30.174Z,27.40
2022-08-11T08:56:58.039Z,27.60
2022-08-11T08:59:38.146Z,27.70
2022-08-11T09:02:14.325Z,27.60
2022-08-11T09:04:44.215Z,27.40
2022-08-11T09:07:23.111Z,27.50
2022-08-11T09:09:52.304Z,27.50
2022-08-11T09:12:35.679Z,27.60
2022-08-11T09:15:10.135Z,27.90
2022-08-11T09:17:51.636Z,27.90
2022-08-11T09:20:29.066Z,27.80
2022-08-11T09:26:30.626Z,28.00
2022-08-11T09:28:58.967Z,28.10
2022-08-11T09:31:26.833Z,28.00
2022-08-11T09:33:55.251Z,28.20
2022-08-11T09:36:41.358Z,28.30
2022-08-11T09:39:28.257Z,28.30
2022-08-11T09:42:00.730Z,28.30
2022-08-11T09:44:49.232Z,28.10
2022-08-11T09:47:21.211Z,28.10
2022-08-11T09:49:49.157Z,28.40
2022-08-11T09:52:18.358Z,28.70
2022-08-11T09:54:48.544Z,28.90
2022-08-11T09:57:37.593Z,29.10
2022-08-11T10:00:13.187Z,29.40
2022-08-11T10:02:44.300Z,29.00
2022-08-11T10:05:33.336Z,28.80
2022-08-11T10:08:01.292Z,28.90
2022-08-11T10:10:29.119Z,29.00
2022-08-11T10:13:05.267Z,29.10
2022-08-11T10:16:14.611Z,29.40
2022-08-11T10:18:52.388Z,29.50
2022-08-11T10:21:43.463Z,29.80
2022-08-11T10:24:30.195Z,30.00
2022-08-11T10:27:02.619Z,29.80
2022-08-11T10:29:55.800Z,29.60
2022-08-11T10:32:58.582Z,29.90
2022-08-11T10:35:28.416Z,30.10
2022-08-11T10:38:08.253Z,30.20
2022-08-11T10:40:39.439Z,30.40
2022-08-11T10:43:13.401Z,30.60
2022-08-11T10:46:04.036Z,30.80
2022-08-11T10:48:36.209Z,30.80
2022-08-11T10:51:13.481Z,30.60
2022-08-11T10:54:02.944Z,30.30
2022-08-11T10:56:51.879Z,30.40
2022-08-11T10:59:18.753Z,30.50
2022-08-11T11:01:46.576Z,30.80
2022-08-11T11:04:20.698Z,30.90
2022-08-11T11:06:59.646Z,31.10
2022-08-11T11:09:58.879Z,31.20
2022-08-11T11:12:53.508Z,31.30
2022-08-11T11:15:40.482Z,31.30
2022-08-11T11:18:15.683Z,31.40
2022-08-11T11:20:47.875Z,31.50
2022-08-11T11:23:27.763Z,31.50
2022-08-11T11:26:11.721Z,31.30
2022-08-11T11:29:02.844Z,31.40
2022-08-11T11:31:52.223Z,31.40
2022-08-11T11:34:37.327Z,31.10
2022-08-11T11:37:20.683Z,31.20
2022-08-11T11:39:47.740Z,31.30
2022-08-11T11:42:16.437Z,30.90
2022-08-11T11:44:44.849Z,30.80
2022-08-11T11:47:16.742Z,30.80
2022-08-11T11:49:44.950Z,31.00
2022-08-11T11:52:18.948Z,31.20
2022-08-11T11:54:54.876Z,31.40
2022-08-11T11:57:41.691Z,31.50
2022-08-11T12:00:44.118Z,31.40
2022-08-11T12:03:12.047Z,30.90
2022-08-11T12:05:40.658Z,30.60
2022-08-11T12:08:17.306Z,30.60
2022-08-11T12:11:15.304Z,30.60
2022-08-11T12:13:47.575Z,30.70
2022-08-11T12:16:34.593Z,30.80
2022-08-11T12:19:05.642Z,31.00
2022-08-11T12:21:34.350Z,31.00
2022-08-11T12:24:20.599Z,31.20
2022-08-11T12:27:14.898Z,31.40
2022-08-11T12:29:35.633Z,31.50
2022-08-11T12:32:07.283Z,31.80
2022-08-11T12:34:34.182Z,31.90
2022-08-11T12:37:05.559Z,31.80
2022-08-11T12:40:16.939Z,31.70
2022-08-11T12:43:04.002Z,31.60
2022-08-11T12:45:38.169Z,31.40
2022-08-11T12:48:59.372Z,31.50
2022-08-11T12:52:12.110Z,31.60
2022-08-11T12:54:39.374Z,31.50
2022-08-11T12:57:37.411Z,31.40
2022-08-11T13:00:25.138Z,31.40
2022-08-11T13:03:11.812Z,31.60
2022-08-11T13:05:40.191Z,31.70
2022-08-11T13:08:14.890Z,31.70
2022-08-11T13:11:01.140Z,31.70
2022-08-11T13:13:54.948Z,31.80
2022-08-11T13:16:16.989Z,31.80
2022-08-11T13:18:44.519Z,31.90
2022-08-11T13:21:19.922Z,31.80
2022-08-11T13:24:01.919Z,31.90
2022-08-11T13:26:47.101Z,31.90
2022-08-11T13:29:22.922Z,32.00
2022-08-11T13:31:51.256Z,31.70
2022-08-11T13:34:19.805Z,31.80
2022-08-11T13:36:51.969Z,32.00
2022-08-11T13:39:21.017Z,32.20
2022-08-11T13:41:50.790Z,32.20
2022-08-11T13:44:24.780Z,32.30
2022-08-11T13:46:55.168Z,32.20
2022-08-11T13:49:22.409Z,32.20
2022-08-11T13:51:49.931Z,32.10
2022-08-11T13:54:31.859Z,32.10
2022-08-11T13:57:08.994Z,32.00
2022-08-11T13:59:51.758Z,31.80
2022-08-11T14:02:29.145Z,31.90
2022-08-11T14:05:09.895Z,32.00
2022-08-11T14:07:40.755Z,32.00
2022-08-11T14:10:10.987Z,32.10
2022-08-11T14:12:59.547Z,32.20
2022-08-11T14:15:32.897Z,32.40
2022-08-11T14:18:07.163Z,32.50
2022-08-11T14:21:00.248Z,32.50
2022-08-11T14:23:40.275Z,32.40
2022-08-11T14:26:26.220Z,32.30
2022-08-11T14:29:05.916Z,32.20
2022-08-11T14:31:37.833Z,32.10
2022-08-11T14:34:12.362Z,32.10
2022-08-11T14:36:43.161Z,32.00
2022-08-11T14:39:17.034Z,32.10
2022-08-11T14:42:10.575Z,32.20
2022-08-11T14:45:01.417Z,32.20
2022-08-11T14:47:31.581Z,31.90
2022-08-11T14:50:11.686Z,31.90
2022-08-11T14:52:43.443Z,31.80
2022-08-11T14:55:30.410Z,31.70
2022-08-11T14:57:57.535Z,31.70
2022-08-11T15:00:25.170Z,31.80
2022-08-11T15:03:14.008Z,32.00
2022-08-11T15:05:55.910Z,31.90
2022-08-11T15:08:54.610Z,31.90
2022-08-11T15:11:42.309Z,31.90
2022-08-11T15:14:10.986Z,32.00
2022-08-11T15:17:01.715Z,32.10
2022-08-11T15:19:40.300Z,32.10
2022-08-11T15:22:28.315Z,32.20
2022-08-11T15:24:55.681Z,32.20
2022-08-11T15:27:42.467Z,32.20
2022-08-11T15:30:32.887Z,32.00
2022-08-11T15:33:23.043Z,32.00
2022-08-11T15:36:09.562Z,31.90
2022-08-11T15:38:42.599Z,31.70
2022-08-11T15:41:31.343Z,31.60
2022-08-11T15:44:16.883Z,31.50
2022-08-11T15:46:55.162Z,31.50
2022-08-11T15:50:11.003Z,31.60
2022-08-11T15:52:21.803Z,31.80
2022-08-11T15:54:49.208Z,31.90
2022-08-11T15:57:40.050Z,31.90
2022-08-11T16:00:26.199Z,32.00
2022-08-11T16:02:54.937Z,31.80
2022-08-11T16:05:45.349Z,31.80
2022-08-11T16:08:13.266Z,31.80
2022-08-11T16:10:44.088Z,31.90
2022-08-11T16:13:13.027Z,32.00
2022-08-11T16:16:07.114Z,32.20
2022-08-11T16:18:41.351Z,32.20
2022-08-11T16:21:33.901Z,32.20
2022-08-11T16:24:01.568Z,32.20
2022-08-11T16:27:10.079Z,32.20
2022-08-11T16:29:19.200Z,32.10
2022-08-11T16:32:07.457Z,31.90
2022-08-11T16:34:54.277Z,32.00
2022-08-11T16:37:41.632Z,32.00
2022-08-11T16:40:09.608Z,31.80
2022-08-11T16:43:02.409Z,31.70
2022-08-11T16:45:56.927Z,31.70
2022-08-11T16:48:36.862Z,31.60
2022-08-11T16:51:06.658Z,31.60
2022-08-11T16:54:04.146Z,31.50
2022-08-11T16:56:24.590Z,31.50
2022-08-11T16:59:13.446Z,31.40
2022-08-11T17:01:42.635Z,31.30
2022-08-11T17:05:04.347Z,31.20
2022-08-11T17:07:49.605Z,31.20
2022-08-11T17:10:55.446Z,31.00
2022-08-11T17:13:32.035Z,31.00
2022-08-11T17:16:12.727Z,30.90
2022-08-11T17:18:47.422Z,30.90
2022-08-11T17:21:22.894Z,31.00
2022-08-11T17:23:54.791Z,30.90
2022-08-11T17:26:24.238Z,30.90
2022-08-11T17:28:56.211Z,30.80
2022-08-11T17:31:43.042Z,30.80
2022-08-11T17:34:29.712Z,30.70
2022-08-11T17:36:56.737Z,30.60
2022-08-11T17:39:29.152Z,30.60
2022-08-11T17:42:16.085Z,30.50
2022-08-11T17:45:02.126Z,30.40
2022-08-11T17:47:48.664Z,30.40
2022-08-11T17:50:17.029Z,30.40
2022-08-11T17:53:04.615Z,30.40
2022-08-11T17:55:53.547Z,30.30
2022-08-11T17:58:40.361Z,30.20
2022-08-11T18:01:10.731Z,30.20
2022-08-11T18:03:41.752Z,30.20
2022-08-11T18:06:21.139Z,30.20
2022-08-11T18:09:21.156Z,30.10
2022-08-11T18:12:11.747Z,29.90
2022-08-11T18:15:00.282Z,29.80
2022-08-11T18:17:45.781Z,29.90
2022-08-11T18:20:31.161Z,29.80
2022-08-11T18:23:18.171Z,29.70
2022-08-11T18:26:07.299Z,29.60
2022-08-11T18:29:01.731Z,29.50
2022-08-11T18:31:49.939Z,29.40
2022-08-11T18:34:40.476Z,29.30
2022-08-11T18:37:36.983Z,29.20
2022-08-11T18:40:30.587Z,29.10
2022-08-11T18:43:22.708Z,28.90
2022-08-11T18:46:15.370Z,28.70
2022-08-11T18:49:10.643Z,28.60
2022-08-11T18:52:00.465Z,28.50
2022-08-11T18:54:48.862Z,28.30
2022-08-11T18:57:52.041Z,28.30
2022-08-11T19:00:41.197Z,28.20
2022-08-11T19:03:28.270Z,28.10
2022-08-11T19:06:38.931Z,28.10
2022-08-11T19:09:25.845Z,28.00
2022-08-11T19:12:13.312Z,27.80
2022-08-11T19:15:00.143Z,27.70
2022-08-11T19:17:48.179Z,27.40
2022-08-11T19:20:39.083Z,27.20
2022-08-11T19:23:27.043Z,27.00
2022-08-11T19:26:12.471Z,26.70
2022-08-11T19:29:00.421Z,26.40
2022-08-11T19:31:46.331Z,26.10
2022-08-11T19:34:37.336Z,25.90
2022-08-11T19:37:25.715Z,25.70
2022-08-11T19:40:13.059Z,25.60
2022-08-11T19:43:01.531Z,25.50
2022-08-11T19:45:52.186Z,25.50
2022-08-11T19:48:40.803Z,25.50
2022-08-11T19:51:28.636Z,25.40
2022-08-11T19:54:15.341Z,25.40
2022-08-11T19:57:02.378Z,25.30
2022-08-11T19:59:49.156Z,25.40
2022-08-11T20:02:34.507Z,25.40
2022-08-11T20:05:19.915Z,25.50
2022-08-11T20:08:06.767Z,25.50
2022-08-11T20:10:54.499Z,25.50
2022-08-11T20:13:43.441Z,25.60
2022-08-11T20:16:32.112Z,25.60
2022-08-11T20:19:20.234Z,25.50
2022-08-11T20:22:14.952Z,25.50
2022-08-11T20:25:01.656Z,25.40
2022-08-11T20:27:46.993Z,25.40
2022-08-11T20:30:32.449Z,25.30
2022-08-11T20:33:18.618Z,25.20
2022-08-11T20:36:07.355Z,25.00
2022-08-11T20:38:54.491Z,25.00
2022-08-11T20:41:58.634Z,24.70
2022-08-11T20:44:47.239Z,24.40
2022-08-11T20:47:58.898Z,24.10
2022-08-11T20:50:45.634Z,24.00
2022-08-11T20:53:35.580Z,23.90
2022-08-11T20:56:28.969Z,24.10
2022-08-11T20:59:18.915Z,24.20
2022-08-11T21:05:15.819Z,24.50
2022-08-11T21:08:09.559Z,24.80
2022-08-11T21:11:01.011Z,24.90
2022-08-11T21:13:51.501Z,25.10
2022-08-11T21:16:42.313Z,25.20
2022-08-11T21:19:59.604Z,25.30
2022-08-11T21:23:05.351Z,25.30
2022-08-11T21:25:59.441Z,25.40
2022-08-11T21:28:46.793Z,25.50
2022-08-11T21:31:33.598Z,25.60
2022-08-11T21:34:19.589Z,25.60
2022-08-11T21:37:07.044Z,25.60
2022-08-11T21:39:53.519Z,25.60
2022-08-11T21:42:39.826Z,25.60
2022-08-11T21:45:27.427Z,25.50
2022-08-11T21:48:14.833Z,25.60
2022-08-11T21:51:00.343Z,25.50
2022-08-11T21:53:46.303Z,25.50
2022-08-11T21:56:33.309Z,25.40
2022-08-11T21:59:20.343Z,25.40
2022-08-11T22:02:12.323Z,25.30
2022-08-11T22:04:58.152Z,25.30
2022-08-11T22:07:43.573Z,25.20
2022-08-11T22:10:41.811Z,25.20
2022-08-11T22:13:30.263Z,25.10
2022-08-11T22:16:16.919Z,25.20
2022-08-11T22:19:03.180Z,25.10
2022-08-11T22:22:01.006Z,25.00
2022-08-11T22:24:51.232Z,25.00
2022-08-11T22:27:36.670Z,25.00
2022-08-11T22:30:23.474Z,24.90
2022-08-11T22:33:08.894Z,24.80
2022-08-11T22:35:54.849Z,24.80
2022-08-11T22:38:41.179Z,24.80
2022-08-11T22:41:26.679Z,24.80
2022-08-11T22:44:12.159Z,24.60
2022-08-11T22:46:58.145Z,24.60
2022-08-11T22:49:57.516Z,24.50
2022-08-11T22:52:44.615Z,24.50
2022-08-11T22:55:30.849Z,24.50
2022-08-11T22:58:16.301Z,24.50
2022-08-11T23:01:02.328Z,24.40
2022-08-11T23:03:47.980Z,24.40
2022-08-11T23:06:34.057Z,24.40
2022-08-11T23:09:20.962Z,24.40
2022-08-11T23:12:10.379Z,24.20
2022-08-11T23:14:58.296Z,24.20
2022-08-11T23:17:44.820Z,24.20
2022-08-11T23:20:35.457Z,24.20
2022-08-11T23:23:32.283Z,24.10
2022-08-11T23:26:18.279Z,24.10
2022-08-11T23:29:06.090Z,24.10
2022-08-11T23:31:54.118Z,24.10
2022-08-11T23:35:03.569Z,23.90
2022-08-11T23:37:53.022Z,23.90
2022-08-11T23:40:38.634Z,23.80
2022-08-11T23:43:24.105Z,23.80
2022-08-11T23:46:09.450Z,23.70
2022-08-11T23:48:56.431Z,23.70
2022-08-11T23:51:42.105Z,23.70
2022-08-11T23:54:29.421Z,23.70
2022-08-11T23:57:16.280Z,23.60
